sensor_id;sensor_type;location;lat;lon;timestamp;temperature;humidity
21807;DHT22;11065;50.786;7.840;2023-04-25T00:02:04;10.70;49.70
21807;DHT22;11065;50.786;7.840;2023-04-25T00:04:33;10.60;49.80
21807;DHT22;11065;50.786;7.840;2023-04-25T00:07:02;10.60;49.80
21807;DHT22;11065;50.786;7.840;2023-04-25T00:09:30;10.60;49.90
21807;DHT22;11065;50.786;7.840;2023-04-25T00:11:58;10.50;49.90
21807;DHT22;11065;50.786;7.840;2023-04-25T00:14:27;10.50;50.00
21807;DHT22;11065;50.786;7.840;2023-04-25T00:16:55;10.40;49.90
21807;DHT22;11065;50.786;7.840;2023-04-25T00:19:23;10.40;50.00
21807;DHT22;11065;50.786;7.840;2023-04-25T00:21:51;10.30;49.90
21807;DHT22;11065;50.786;7.840;2023-04-25T00:24:20;10.40;50.00
21807;DHT22;11065;50.786;7.840;2023-04-25T00:26:48;10.30;50.00
21807;DHT22;11065;50.786;7.840;2023-04-25T00:29:16;10.30;50.00
21807;DHT22;11065;50.786;7.840;2023-04-25T00:31:45;10.20;50.00
21807;DHT22;11065;50.786;7.840;2023-04-25T00:34:13;10.20;50.00
21807;DHT22;11065;50.786;7.840;2023-04-25T00:36:41;10.20;50.10
21807;DHT22;11065;50.786;7.840;2023-04-25T00:39:09;10.10;50.10
21807;DHT22;11065;50.786;7.840;2023-04-25T00:41:38;10.10;50.20
21807;DHT22;11065;50.786;7.840;2023-04-25T00:44:08;10.10;50.30
21807;DHT22;11065;50.786;7.840;2023-04-25T00:46:38;10.00;50.20
21807;DHT22;11065;50.786;7.840;2023-04-25T00:49:08;10.00;50.30
21807;DHT22;11065;50.786;7.840;2023-04-25T00:51:42;10.00;50.30
21807;DHT22;11065;50.786;7.840;2023-04-25T00:54:11;9.90;50.40
21807;DHT22;11065;50.786;7.840;2023-04-25T00:56:40;9.90;50.40
21807;DHT22;11065;50.786;7.840;2023-04-25T00:59:09;9.80;50.40
21807;DHT22;11065;50.786;7.840;2023-04-25T01:01:39;9.80;50.40
21807;DHT22;11065;50.786;7.840;2023-04-25T01:04:08;9.80;50.50
21807;DHT22;11065;50.786;7.840;2023-04-25T01:06:37;9.80;50.50
21807;DHT22;11065;50.786;7.840;2023-04-25T01:09:05;9.70;50.40
21807;DHT22;11065;50.786;7.840;2023-04-25T01:11:33;9.70;50.50
21807;DHT22;11065;50.786;7.840;2023-04-25T01:14:01;9.70;50.50
21807;DHT22;11065;50.786;7.840;2023-04-25T01:16:29;9.60;50.50
21807;DHT22;11065;50.786;7.840;2023-04-25T01:18:58;9.60;50.50
21807;DHT22;11065;50.786;7.840;2023-04-25T01:21:28;9.50;50.50
21807;DHT22;11065;50.786;7.840;2023-04-25T01:23:57;9.50;50.60
21807;DHT22;11065;50.786;7.840;2023-04-25T01:26:26;9.50;50.60
21807;DHT22;11065;50.786;7.840;2023-04-25T01:28:54;9.40;50.60
21807;DHT22;11065;50.786;7.840;2023-04-25T01:31:23;9.40;51.10
21807;DHT22;11065;50.786;7.840;2023-04-25T01:33:52;9.30;50.70
21807;DHT22;11065;50.786;7.840;2023-04-25T01:36:20;9.30;50.70
21807;DHT22;11065;50.786;7.840;2023-04-25T01:38:50;9.30;50.80
21807;DHT22;11065;50.786;7.840;2023-04-25T01:41:19;9.30;50.90
21807;DHT22;11065;50.786;7.840;2023-04-25T01:43:49;9.20;50.80
21807;DHT22;11065;50.786;7.840;2023-04-25T01:46:18;9.20;50.90
21807;DHT22;11065;50.786;7.840;2023-04-25T01:48:46;9.10;50.90
21807;DHT22;11065;50.786;7.840;2023-04-25T01:51:15;9.10;51.00
21807;DHT22;11065;50.786;7.840;2023-04-25T01:53:43;9.10;51.00
21807;DHT22;11065;50.786;7.840;2023-04-25T01:56:13;9.10;51.10
21807;DHT22;11065;50.786;7.840;2023-04-25T01:58:41;9.00;51.10
21807;DHT22;11065;50.786;7.840;2023-04-25T02:01:18;9.00;51.20
21807;DHT22;11065;50.786;7.840;2023-04-25T02:04:01;9.00;51.20
21807;DHT22;11065;50.786;7.840;2023-04-25T02:06:34;8.90;51.20
21807;DHT22;11065;50.786;7.840;2023-04-25T02:09:02;8.90;51.30
21807;DHT22;11065;50.786;7.840;2023-04-25T02:11:32;8.90;51.50
21807;DHT22;11065;50.786;7.840;2023-04-25T02:14:24;8.80;51.70
21807;DHT22;11065;50.786;7.840;2023-04-25T02:17:01;8.80;51.70
21807;DHT22;11065;50.786;7.840;2023-04-25T02:19:30;8.90;51.90
21807;DHT22;11065;50.786;7.840;2023-04-25T02:21:59;8.90;51.90
21807;DHT22;11065;50.786;7.840;2023-04-25T02:24:27;8.90;52.00
21807;DHT22;11065;50.786;7.840;2023-04-25T02:26:57;8.90;52.00
21807;DHT22;11065;50.786;7.840;2023-04-25T02:29:25;8.90;52.10
21807;DHT22;11065;50.786;7.840;2023-04-25T02:31:53;9.00;52.10
21807;DHT22;11065;50.786;7.840;2023-04-25T02:34:21;9.00;52.10
21807;DHT22;11065;50.786;7.840;2023-04-25T02:36:50;9.00;52.10
21807;DHT22;11065;50.786;7.840;2023-04-25T02:39:18;9.00;52.10
21807;DHT22;11065;50.786;7.840;2023-04-25T02:41:46;9.00;52.20
21807;DHT22;11065;50.786;7.840;2023-04-25T02:44:16;9.10;52.20
21807;DHT22;11065;50.786;7.840;2023-04-25T02:46:44;9.00;52.10
21807;DHT22;11065;50.786;7.840;2023-04-25T02:49:12;9.10;52.10
21807;DHT22;11065;50.786;7.840;2023-04-25T02:51:40;9.10;52.10
21807;DHT22;11065;50.786;7.840;2023-04-25T02:54:09;9.10;52.10
21807;DHT22;11065;50.786;7.840;2023-04-25T02:56:40;9.10;52.10
21807;DHT22;11065;50.786;7.840;2023-04-25T02:59:13;9.20;52.10
21807;DHT22;11065;50.786;7.840;2023-04-25T03:01:43;9.20;52.00
21807;DHT22;11065;50.786;7.840;2023-04-25T03:04:12;9.20;52.10
21807;DHT22;11065;50.786;7.840;2023-04-25T03:06:40;9.20;52.00
21807;DHT22;11065;50.786;7.840;2023-04-25T03:09:08;9.20;52.10
21807;DHT22;11065;50.786;7.840;2023-04-25T03:11:38;9.20;52.10
21807;DHT22;11065;50.786;7.840;2023-04-25T03:14:06;9.20;52.10
21807;DHT22;11065;50.786;7.840;2023-04-25T03:16:34;9.20;52.10
21807;DHT22;11065;50.786;7.840;2023-04-25T03:19:04;9.20;52.10
21807;DHT22;11065;50.786;7.840;2023-04-25T03:21:33;9.20;52.10
21807;DHT22;11065;50.786;7.840;2023-04-25T03:24:04;9.20;52.10
21807;DHT22;11065;50.786;7.840;2023-04-25T03:26:32;9.20;52.10
21807;DHT22;11065;50.786;7.840;2023-04-25T03:29:00;9.10;52.10
21807;DHT22;11065;50.786;7.840;2023-04-25T03:31:28;9.10;52.10
21807;DHT22;11065;50.786;7.840;2023-04-25T03:33:57;9.10;52.10
21807;DHT22;11065;50.786;7.840;2023-04-25T03:36:27;9.10;52.40
21807;DHT22;11065;50.786;7.840;2023-04-25T03:38:55;9.00;52.00
21807;DHT22;11065;50.786;7.840;2023-04-25T03:41:23;9.00;52.00
21807;DHT22;11065;50.786;7.840;2023-04-25T03:43:55;8.90;52.00
21807;DHT22;11065;50.786;7.840;2023-04-25T03:46:23;8.90;52.00
21807;DHT22;11065;50.786;7.840;2023-04-25T03:48:51;8.80;52.00
21807;DHT22;11065;50.786;7.840;2023-04-25T03:51:24;8.80;52.00
21807;DHT22;11065;50.786;7.840;2023-04-25T03:53:54;8.70;52.00
21807;DHT22;11065;50.786;7.840;2023-04-25T03:56:30;8.70;52.00
21807;DHT22;11065;50.786;7.840;2023-04-25T03:59:12;8.60;52.00
21807;DHT22;11065;50.786;7.840;2023-04-25T04:01:40;8.50;52.00
21807;DHT22;11065;50.786;7.840;2023-04-25T04:04:08;8.50;52.00
21807;DHT22;11065;50.786;7.840;2023-04-25T04:06:37;8.40;52.20
21807;DHT22;11065;50.786;7.840;2023-04-25T04:09:13;8.40;52.20
21807;DHT22;11065;50.786;7.840;2023-04-25T04:11:43;8.40;52.30
21807;DHT22;11065;50.786;7.840;2023-04-25T04:14:11;8.30;52.30
21807;DHT22;11065;50.786;7.840;2023-04-25T04:16:43;8.30;52.40
21807;DHT22;11065;50.786;7.840;2023-04-25T04:19:11;8.20;52.30
21807;DHT22;11065;50.786;7.840;2023-04-25T04:21:44;8.20;52.40
21807;DHT22;11065;50.786;7.840;2023-04-25T04:24:13;8.20;52.40
21807;DHT22;11065;50.786;7.840;2023-04-25T04:26:51;8.10;52.60
21807;DHT22;11065;50.786;7.840;2023-04-25T04:29:29;8.20;52.60
21807;DHT22;11065;50.786;7.840;2023-04-25T04:32:07;8.10;52.60
21807;DHT22;11065;50.786;7.840;2023-04-25T04:34:36;8.10;52.70
21807;DHT22;11065;50.786;7.840;2023-04-25T04:37:06;8.10;52.80
21807;DHT22;11065;50.786;7.840;2023-04-25T04:39:36;8.10;52.80
21807;DHT22;11065;50.786;7.840;2023-04-25T04:42:11;8.20;53.10
21807;DHT22;11065;50.786;7.840;2023-04-25T04:44:53;8.10;53.00
21807;DHT22;11065;50.786;7.840;2023-04-25T04:47:34;8.20;53.00
21807;DHT22;11065;50.786;7.840;2023-04-25T04:50:33;8.20;53.10
21807;DHT22;11065;50.786;7.840;2023-04-25T04:53:25;8.30;53.30
21807;DHT22;11065;50.786;7.840;2023-04-25T04:56:09;8.30;53.20
21807;DHT22;11065;50.786;7.840;2023-04-25T04:59:13;8.20;53.20
21807;DHT22;11065;50.786;7.840;2023-04-25T05:02:04;8.30;53.20
21807;DHT22;11065;50.786;7.840;2023-04-25T05:04:51;8.40;53.20
21807;DHT22;11065;50.786;7.840;2023-04-25T05:07:48;8.40;53.40
21807;DHT22;11065;50.786;7.840;2023-04-25T05:10:31;8.50;53.40
21807;DHT22;11065;50.786;7.840;2023-04-25T05:13:08;8.60;53.50
21807;DHT22;11065;50.786;7.840;2023-04-25T05:15:54;8.60;53.40
21807;DHT22;11065;50.786;7.840;2023-04-25T05:18:33;8.70;53.40
21807;DHT22;11065;50.786;7.840;2023-04-25T05:21:25;8.70;53.50
21807;DHT22;11065;50.786;7.840;2023-04-25T05:24:20;8.80;53.30
21807;DHT22;11065;50.786;7.840;2023-04-25T05:27:09;8.90;53.30
21807;DHT22;11065;50.786;7.840;2023-04-25T05:29:56;8.90;53.40
21807;DHT22;11065;50.786;7.840;2023-04-25T05:32:33;9.00;53.30
21807;DHT22;11065;50.786;7.840;2023-04-25T05:35:02;9.00;53.30
21807;DHT22;11065;50.786;7.840;2023-04-25T05:37:37;9.10;53.70
21807;DHT22;11065;50.786;7.840;2023-04-25T05:40:10;9.10;53.20
21807;DHT22;11065;50.786;7.840;2023-04-25T05:42:44;9.20;53.10
21807;DHT22;11065;50.786;7.840;2023-04-25T05:45:26;9.20;53.10
21807;DHT22;11065;50.786;7.840;2023-04-25T05:48:03;9.30;53.10
21807;DHT22;11065;50.786;7.840;2023-04-25T05:50:58;9.30;53.10
21807;DHT22;11065;50.786;7.840;2023-04-25T05:53:38;9.40;53.00
21807;DHT22;11065;50.786;7.840;2023-04-25T05:56:06;9.40;53.00
21807;DHT22;11065;50.786;7.840;2023-04-25T05:58:34;9.40;53.00
21807;DHT22;11065;50.786;7.840;2023-04-25T06:01:04;9.40;53.00
21807;DHT22;11065;50.786;7.840;2023-04-25T06:03:32;9.50;53.00
21807;DHT22;11065;50.786;7.840;2023-04-25T06:06:01;9.50;53.00
21807;DHT22;11065;50.786;7.840;2023-04-25T06:08:29;9.50;53.00
21807;DHT22;11065;50.786;7.840;2023-04-25T06:10:57;9.60;53.00
21807;DHT22;11065;50.786;7.840;2023-04-25T06:13:25;9.60;53.00
21807;DHT22;11065;50.786;7.840;2023-04-25T06:15:55;9.60;53.00
21807;DHT22;11065;50.786;7.840;2023-04-25T06:18:24;9.70;53.00
21807;DHT22;11065;50.786;7.840;2023-04-25T06:20:52;9.70;53.00
21807;DHT22;11065;50.786;7.840;2023-04-25T06:23:21;9.70;53.00
21807;DHT22;11065;50.786;7.840;2023-04-25T06:25:53;9.80;53.10
21807;DHT22;11065;50.786;7.840;2023-04-25T06:28:21;9.80;53.10
21807;DHT22;11065;50.786;7.840;2023-04-25T06:30:51;9.90;53.00
21807;DHT22;11065;50.786;7.840;2023-04-25T06:33:19;9.90;53.00
21807;DHT22;11065;50.786;7.840;2023-04-25T06:35:50;10.00;53.00
21807;DHT22;11065;50.786;7.840;2023-04-25T06:38:22;10.00;53.00
21807;DHT22;11065;50.786;7.840;2023-04-25T06:40:51;10.00;53.00
21807;DHT22;11065;50.786;7.840;2023-04-25T06:43:19;10.10;53.20
21807;DHT22;11065;50.786;7.840;2023-04-25T06:46:08;10.20;53.30
21807;DHT22;11065;50.786;7.840;2023-04-25T06:48:42;10.20;53.30
21807;DHT22;11065;50.786;7.840;2023-04-25T06:51:12;10.30;53.80
21807;DHT22;11065;50.786;7.840;2023-04-25T06:53:41;10.40;53.20
21807;DHT22;11065;50.786;7.840;2023-04-25T06:56:16;10.50;53.00
21807;DHT22;11065;50.786;7.840;2023-04-25T06:58:52;10.50;52.80
21807;DHT22;11065;50.786;7.840;2023-04-25T07:01:28;10.60;52.70
21807;DHT22;11065;50.786;7.840;2023-04-25T07:03:58;10.60;52.60
21807;DHT22;11065;50.786;7.840;2023-04-25T07:06:30;10.60;52.50
21807;DHT22;11065;50.786;7.840;2023-04-25T07:08:58;10.60;52.50
21807;DHT22;11065;50.786;7.840;2023-04-25T07:11:26;10.70;52.60
21807;DHT22;11065;50.786;7.840;2023-04-25T07:13:55;10.70;52.70
21807;DHT22;11065;50.786;7.840;2023-04-25T07:16:24;10.70;52.90
21807;DHT22;11065;50.786;7.840;2023-04-25T07:18:52;10.90;53.00
21807;DHT22;11065;50.786;7.840;2023-04-25T07:21:20;11.00;53.00
21807;DHT22;11065;50.786;7.840;2023-04-25T07:23:52;11.10;52.80
21807;DHT22;11065;50.786;7.840;2023-04-25T07:26:25;11.20;52.60
21807;DHT22;11065;50.786;7.840;2023-04-25T07:29:14;11.20;52.30
21807;DHT22;11065;50.786;7.840;2023-04-25T07:31:42;11.30;52.20
21807;DHT22;11065;50.786;7.840;2023-04-25T07:34:11;11.30;52.00
21807;DHT22;11065;50.786;7.840;2023-04-25T07:36:39;11.40;51.90
21807;DHT22;11065;50.786;7.840;2023-04-25T07:39:09;11.40;51.80
21807;DHT22;11065;50.786;7.840;2023-04-25T07:41:37;11.40;51.80
21807;DHT22;11065;50.786;7.840;2023-04-25T07:44:08;11.40;52.30
21807;DHT22;11065;50.786;7.840;2023-04-25T07:46:36;11.40;51.90
21807;DHT22;11065;50.786;7.840;2023-04-25T07:49:05;11.40;51.80
21807;DHT22;11065;50.786;7.840;2023-04-25T07:51:33;11.30;51.50
21807;DHT22;11065;50.786;7.840;2023-04-25T07:54:08;11.30;51.50
21807;DHT22;11065;50.786;7.840;2023-04-25T07:56:42;11.20;52.00
21807;DHT22;11065;50.786;7.840;2023-04-25T07:59:20;11.20;51.60
21807;DHT22;11065;50.786;7.840;2023-04-25T08:01:48;11.10;51.70
21807;DHT22;11065;50.786;7.840;2023-04-25T08:04:18;11.10;51.80
21807;DHT22;11065;50.786;7.840;2023-04-25T08:06:54;11.10;51.80
21807;DHT22;11065;50.786;7.840;2023-04-25T08:09:27;11.10;51.80
21807;DHT22;11065;50.786;7.840;2023-04-25T08:11:56;11.20;51.70
21807;DHT22;11065;50.786;7.840;2023-04-25T08:14:30;11.20;51.90
21807;DHT22;11065;50.786;7.840;2023-04-25T08:17:04;11.30;52.10
21807;DHT22;11065;50.786;7.840;2023-04-25T08:19:35;11.30;52.10
21807;DHT22;11065;50.786;7.840;2023-04-25T08:22:03;11.50;52.40
21807;DHT22;11065;50.786;7.840;2023-04-25T08:24:43;11.60;52.70
21807;DHT22;11065;50.786;7.840;2023-04-25T08:27:12;11.90;53.30
21807;DHT22;11065;50.786;7.840;2023-04-25T08:29:41;12.20;53.60
21807;DHT22;11065;50.786;7.840;2023-04-25T08:32:09;12.60;53.70
21807;DHT22;11065;50.786;7.840;2023-04-25T08:34:42;13.10;53.90
21807;DHT22;11065;50.786;7.840;2023-04-25T08:37:10;13.60;54.20
21807;DHT22;11065;50.786;7.840;2023-04-25T08:40:11;14.10;53.20
21807;DHT22;11065;50.786;7.840;2023-04-25T08:42:50;14.50;51.90
21807;DHT22;11065;50.786;7.840;2023-04-25T08:45:20;14.70;51.10
21807;DHT22;11065;50.786;7.840;2023-04-25T08:47:51;14.80;50.20
21807;DHT22;11065;50.786;7.840;2023-04-25T08:50:22;14.70;49.40
21807;DHT22;11065;50.786;7.840;2023-04-25T08:52:53;14.60;48.90
21807;DHT22;11065;50.786;7.840;2023-04-25T08:55:23;14.50;48.30
21807;DHT22;11065;50.786;7.840;2023-04-25T08:57:56;14.30;48.10
21807;DHT22;11065;50.786;7.840;2023-04-25T09:00:25;14.10;47.90
21807;DHT22;11065;50.786;7.840;2023-04-25T09:02:56;13.90;47.50
21807;DHT22;11065;50.786;7.840;2023-04-25T09:05:28;13.80;47.80
21807;DHT22;11065;50.786;7.840;2023-04-25T09:07:57;13.60;47.80
21807;DHT22;11065;50.786;7.840;2023-04-25T09:10:26;13.50;47.90
21807;DHT22;11065;50.786;7.840;2023-04-25T09:13:04;13.40;48.10
21807;DHT22;11065;50.786;7.840;2023-04-25T09:15:49;13.30;48.00
21807;DHT22;11065;50.786;7.840;2023-04-25T09:18:32;13.30;48.40
21807;DHT22;11065;50.786;7.840;2023-04-25T09:21:05;13.30;48.70
21807;DHT22;11065;50.786;7.840;2023-04-25T09:23:45;13.40;48.60
21807;DHT22;11065;50.786;7.840;2023-04-25T09:26:16;13.60;49.00
21807;DHT22;11065;50.786;7.840;2023-04-25T09:28:45;13.80;49.20
21807;DHT22;11065;50.786;7.840;2023-04-25T09:31:21;14.00;49.30
21807;DHT22;11065;50.786;7.840;2023-04-25T09:33:59;14.30;48.50
21807;DHT22;11065;50.786;7.840;2023-04-25T09:36:34;14.50;47.80
21807;DHT22;11065;50.786;7.840;2023-04-25T09:39:17;14.60;47.40
21807;DHT22;11065;50.786;7.840;2023-04-25T09:42:00;14.70;46.60
21807;DHT22;11065;50.786;7.840;2023-04-25T09:44:30;14.60;46.50
21807;DHT22;11065;50.786;7.840;2023-04-25T09:46:59;14.50;46.30
21807;DHT22;11065;50.786;7.840;2023-04-25T09:49:28;14.40;46.20
21807;DHT22;11065;50.786;7.840;2023-04-25T09:52:03;14.20;46.00
21807;DHT22;11065;50.786;7.840;2023-04-25T09:54:38;14.10;45.80
21807;DHT22;11065;50.786;7.840;2023-04-25T09:57:17;13.90;46.00
21807;DHT22;11065;50.786;7.840;2023-04-25T09:59:47;13.80;45.90
21807;DHT22;11065;50.786;7.840;2023-04-25T10:02:17;13.60;46.00
21807;DHT22;11065;50.786;7.840;2023-04-25T10:04:49;13.50;46.10
21807;DHT22;11065;50.786;7.840;2023-04-25T10:07:30;13.40;46.20
21807;DHT22;11065;50.786;7.840;2023-04-25T10:10:00;13.40;45.90
21807;DHT22;11065;50.786;7.840;2023-04-25T10:12:32;13.20;46.00
21807;DHT22;11065;50.786;7.840;2023-04-25T10:15:01;13.20;46.10
21807;DHT22;11065;50.786;7.840;2023-04-25T10:17:31;13.00;46.10
21807;DHT22;11065;50.786;7.840;2023-04-25T10:20:02;13.00;46.10
21807;DHT22;11065;50.786;7.840;2023-04-25T10:22:35;12.90;46.30
21807;DHT22;11065;50.786;7.840;2023-04-25T10:25:04;12.90;46.30
21807;DHT22;11065;50.786;7.840;2023-04-25T10:27:34;12.90;46.00
21807;DHT22;11065;50.786;7.840;2023-04-25T10:30:04;12.90;46.50
21807;DHT22;11065;50.786;7.840;2023-04-25T10:32:33;13.00;46.80
21807;DHT22;11065;50.786;7.840;2023-04-25T10:35:11;13.20;46.90
21807;DHT22;11065;50.786;7.840;2023-04-25T10:37:58;13.40;47.10
21807;DHT22;11065;50.786;7.840;2023-04-25T10:40:26;13.70;47.30
21807;DHT22;11065;50.786;7.840;2023-04-25T10:43:36;14.00;47.80
21807;DHT22;11065;50.786;7.840;2023-04-25T10:46:15;14.30;46.60
21807;DHT22;11065;50.786;7.840;2023-04-25T10:48:48;14.60;46.00
21807;DHT22;11065;50.786;7.840;2023-04-25T10:51:19;14.80;46.40
21807;DHT22;11065;50.786;7.840;2023-04-25T10:54:02;15.00;46.10
21807;DHT22;11065;50.786;7.840;2023-04-25T10:56:31;15.10;45.40
21807;DHT22;11065;50.786;7.840;2023-04-25T10:59:12;15.20;45.70
21807;DHT22;11065;50.786;7.840;2023-04-25T11:01:41;15.30;44.30
21807;DHT22;11065;50.786;7.840;2023-04-25T11:04:20;15.30;44.80
21807;DHT22;11065;50.786;7.840;2023-04-25T11:07:04;15.30;44.00
21807;DHT22;11065;50.786;7.840;2023-04-25T11:09:38;15.20;43.40
21807;DHT22;11065;50.786;7.840;2023-04-25T11:12:08;15.10;43.90
21807;DHT22;11065;50.786;7.840;2023-04-25T11:14:40;15.10;43.90
21807;DHT22;11065;50.786;7.840;2023-04-25T11:17:08;15.00;43.50
21807;DHT22;11065;50.786;7.840;2023-04-25T11:19:37;14.90;43.20
21807;DHT22;11065;50.786;7.840;2023-04-25T11:22:05;14.80;43.70
21807;DHT22;11065;50.786;7.840;2023-04-25T11:24:35;14.70;43.70
21807;DHT22;11065;50.786;7.840;2023-04-25T11:27:05;14.60;42.80
21807;DHT22;11065;50.786;7.840;2023-04-25T11:29:34;14.50;43.60
21807;DHT22;11065;50.786;7.840;2023-04-25T11:32:04;14.40;43.90
21807;DHT22;11065;50.786;7.840;2023-04-25T11:34:33;14.40;44.10
21807;DHT22;11065;50.786;7.840;2023-04-25T11:37:02;14.40;43.90
21807;DHT22;11065;50.786;7.840;2023-04-25T11:39:30;14.40;44.30
21807;DHT22;11065;50.786;7.840;2023-04-25T11:41:58;14.50;45.20
21807;DHT22;11065;50.786;7.840;2023-04-25T11:44:34;14.80;46.70
21807;DHT22;11065;50.786;7.840;2023-04-25T11:47:03;15.50;48.00
21807;DHT22;11065;50.786;7.840;2023-04-25T11:49:31;16.20;48.10
21807;DHT22;11065;50.786;7.840;2023-04-25T11:52:00;17.00;48.10
21807;DHT22;11065;50.786;7.840;2023-04-25T11:54:27;17.90;47.80
21807;DHT22;11065;50.786;7.840;2023-04-25T11:56:55;18.70;46.70
21807;DHT22;11065;50.786;7.840;2023-04-25T11:59:25;19.30;45.80
21807;DHT22;11065;50.786;7.840;2023-04-25T12:01:53;19.70;44.20
21807;DHT22;11065;50.786;7.840;2023-04-25T12:04:24;19.90;42.80
21807;DHT22;11065;50.786;7.840;2023-04-25T12:06:54;19.90;42.40
21807;DHT22;11065;50.786;7.840;2023-04-25T12:09:28;19.80;40.90
21807;DHT22;11065;50.786;7.840;2023-04-25T12:11:57;19.70;40.70
21807;DHT22;11065;50.786;7.840;2023-04-25T12:14:26;19.50;40.80
21807;DHT22;11065;50.786;7.840;2023-04-25T12:16:56;19.20;40.70
21807;DHT22;11065;50.786;7.840;2023-04-25T12:19:31;18.90;40.00
21807;DHT22;11065;50.786;7.840;2023-04-25T12:22:00;18.60;40.00
21807;DHT22;11065;50.786;7.840;2023-04-25T12:24:32;18.40;40.20
21807;DHT22;11065;50.786;7.840;2023-04-25T12:27:06;18.10;40.00
21807;DHT22;11065;50.786;7.840;2023-04-25T12:29:35;17.80;39.70
21807;DHT22;11065;50.786;7.840;2023-04-25T12:32:15;17.60;40.10
21807;DHT22;11065;50.786;7.840;2023-04-25T12:34:44;17.50;40.30
21807;DHT22;11065;50.786;7.840;2023-04-25T12:37:13;17.30;40.40
21807;DHT22;11065;50.786;7.840;2023-04-25T12:39:41;17.30;40.40
21807;DHT22;11065;50.786;7.840;2023-04-25T12:42:09;17.20;40.20
21807;DHT22;11065;50.786;7.840;2023-04-25T12:44:40;17.00;40.50
21807;DHT22;11065;50.786;7.840;2023-04-25T12:47:08;17.00;40.50
21807;DHT22;11065;50.786;7.840;2023-04-25T12:49:36;16.90;40.50
21807;DHT22;11065;50.786;7.840;2023-04-25T12:52:06;16.90;40.70
21807;DHT22;11065;50.786;7.840;2023-04-25T12:54:34;16.90;40.70
21807;DHT22;11065;50.786;7.840;2023-04-25T12:57:02;16.90;40.70
21807;DHT22;11065;50.786;7.840;2023-04-25T12:59:30;16.90;40.80
21807;DHT22;11065;50.786;7.840;2023-04-25T13:01:58;16.90;40.40
21807;DHT22;11065;50.786;7.840;2023-04-25T13:04:26;16.90;40.70
21807;DHT22;11065;50.786;7.840;2023-04-25T13:06:55;16.90;40.60
21807;DHT22;11065;50.786;7.840;2023-04-25T13:09:24;17.00;40.80
21807;DHT22;11065;50.786;7.840;2023-04-25T13:11:52;17.00;40.40
21807;DHT22;11065;50.786;7.840;2023-04-25T13:14:24;17.00;40.40
21807;DHT22;11065;50.786;7.840;2023-04-25T13:16:52;17.20;40.70
21807;DHT22;11065;50.786;7.840;2023-04-25T13:19:21;17.30;40.30
21807;DHT22;11065;50.786;7.840;2023-04-25T13:21:49;17.30;39.90
21807;DHT22;11065;50.786;7.840;2023-04-25T13:24:17;17.30;38.90
21807;DHT22;11065;50.786;7.840;2023-04-25T13:26:47;17.20;39.50
21807;DHT22;11065;50.786;7.840;2023-04-25T13:29:15;17.40;40.10
21807;DHT22;11065;50.786;7.840;2023-04-25T13:31:43;17.70;40.80
21807;DHT22;11065;50.786;7.840;2023-04-25T13:34:11;18.10;40.90
21807;DHT22;11065;50.786;7.840;2023-04-25T13:36:40;18.40;40.40
21807;DHT22;11065;50.786;7.840;2023-04-25T13:39:08;18.60;38.10
21807;DHT22;11065;50.786;7.840;2023-04-25T13:41:36;18.70;38.60
21807;DHT22;11065;50.786;7.840;2023-04-25T13:44:05;18.70;38.10
21807;DHT22;11065;50.786;7.840;2023-04-25T13:46:33;18.60;37.50
21807;DHT22;11065;50.786;7.840;2023-04-25T13:49:13;18.40;37.80
21807;DHT22;11065;50.786;7.840;2023-04-25T13:51:42;18.40;38.10
21807;DHT22;11065;50.786;7.840;2023-04-25T13:54:10;18.30;37.00
21807;DHT22;11065;50.786;7.840;2023-04-25T13:56:38;18.10;36.90
21807;DHT22;11065;50.786;7.840;2023-04-25T13:59:10;18.00;37.40
21807;DHT22;11065;50.786;7.840;2023-04-25T14:01:38;17.80;36.70
21807;DHT22;11065;50.786;7.840;2023-04-25T14:04:07;17.60;37.20
21807;DHT22;11065;50.786;7.840;2023-04-25T14:06:35;17.50;37.60
21807;DHT22;11065;50.786;7.840;2023-04-25T14:09:03;17.50;38.10
21807;DHT22;11065;50.786;7.840;2023-04-25T14:11:33;17.70;37.90
21807;DHT22;11065;50.786;7.840;2023-04-25T14:14:01;17.90;38.60
21807;DHT22;11065;50.786;7.840;2023-04-25T14:16:31;18.10;38.80
21807;DHT22;11065;50.786;7.840;2023-04-25T14:18:59;18.30;38.90
21807;DHT22;11065;50.786;7.840;2023-04-25T14:21:28;18.60;38.90
21807;DHT22;11065;50.786;7.840;2023-04-25T14:23:58;18.90;38.70
21807;DHT22;11065;50.786;7.840;2023-04-25T14:26:26;19.20;38.50
21807;DHT22;11065;50.786;7.840;2023-04-25T14:28:54;19.40;38.30
21807;DHT22;11065;50.786;7.840;2023-04-25T14:31:22;19.60;38.00
21807;DHT22;11065;50.786;7.840;2023-04-25T14:33:51;19.90;37.70
21807;DHT22;11065;50.786;7.840;2023-04-25T14:36:22;19.90;37.00
21807;DHT22;11065;50.786;7.840;2023-04-25T14:38:50;19.90;36.20
21807;DHT22;11065;50.786;7.840;2023-04-25T14:41:18;19.90;36.50
21807;DHT22;11065;50.786;7.840;2023-04-25T14:43:46;19.70;36.20
21807;DHT22;11065;50.786;7.840;2023-04-25T14:46:14;19.60;36.10
21807;DHT22;11065;50.786;7.840;2023-04-25T14:48:42;19.40;36.00
21807;DHT22;11065;50.786;7.840;2023-04-25T14:51:12;19.10;35.60
21807;DHT22;11065;50.786;7.840;2023-04-25T14:53:40;18.90;35.30
21807;DHT22;11065;50.786;7.840;2023-04-25T14:56:08;18.60;35.30
21807;DHT22;11065;50.786;7.840;2023-04-25T14:58:36;18.40;35.70
21807;DHT22;11065;50.786;7.840;2023-04-25T15:01:05;18.20;35.90
21807;DHT22;11065;50.786;7.840;2023-04-25T15:03:33;18.10;36.20
21807;DHT22;11065;50.786;7.840;2023-04-25T15:06:02;18.10;35.90
21807;DHT22;11065;50.786;7.840;2023-04-25T15:08:31;18.10;36.60
21807;DHT22;11065;50.786;7.840;2023-04-25T15:11:00;18.10;35.70
21807;DHT22;11065;50.786;7.840;2023-04-25T15:13:28;18.00;36.10
21807;DHT22;11065;50.786;7.840;2023-04-25T15:15:56;17.90;36.40
21807;DHT22;11065;50.786;7.840;2023-04-25T15:18:25;17.90;36.60
21807;DHT22;11065;50.786;7.840;2023-04-25T15:20:53;17.90;37.00
21807;DHT22;11065;50.786;7.840;2023-04-25T15:23:23;18.00;37.30
21807;DHT22;11065;50.786;7.840;2023-04-25T15:25:55;18.20;37.50
21807;DHT22;11065;50.786;7.840;2023-04-25T15:28:23;18.40;36.80
21807;DHT22;11065;50.786;7.840;2023-04-25T15:30:51;18.50;37.10
21807;DHT22;11065;50.786;7.840;2023-04-25T15:33:19;18.70;36.90
21807;DHT22;11065;50.786;7.840;2023-04-25T15:35:47;18.80;36.60
21807;DHT22;11065;50.786;7.840;2023-04-25T15:38:15;18.90;36.10
21807;DHT22;11065;50.786;7.840;2023-04-25T15:40:43;19.10;36.10
21807;DHT22;11065;50.786;7.840;2023-04-25T15:43:13;19.10;35.90
21807;DHT22;11065;50.786;7.840;2023-04-25T15:45:43;19.20;35.10
21807;DHT22;11065;50.786;7.840;2023-04-25T15:48:11;19.30;35.70
21807;DHT22;11065;50.786;7.840;2023-04-25T15:50:40;19.30;35.70
21807;DHT22;11065;50.786;7.840;2023-04-25T15:53:09;19.30;35.50
21807;DHT22;11065;50.786;7.840;2023-04-25T15:55:37;19.30;34.60
21807;DHT22;11065;50.786;7.840;2023-04-25T15:58:05;19.30;34.80
21807;DHT22;11065;50.786;7.840;2023-04-25T16:00:36;19.30;34.70
21807;DHT22;11065;50.786;7.840;2023-04-25T16:03:06;19.10;34.00